createdAt,value
2019-01-19T05:04:02.882Z,99.310303
2019-01-19T05:07:30.922Z,99.200439
2019-01-19T05:10:58.955Z,99.09668
2019-01-19T05:14:26.922Z,99.09668
2019-01-19T05:17:55.914Z,98.88916
2019-01-19T05:21:23.914Z,98.88916
2019-01-19T05:24:51.895Z,98.7854
2019-01-19T05:28:19.892Z,98.88916
2019-01-19T05:31:47.968Z,98.88916
2019-01-19T05:35:15.926Z,98.99292
2019-01-19T05:38:43.875Z,99.145508
2019-01-19T05:42:11.842Z,99.249268
2019-01-19T05:45:39.801Z,99.353027
2019-01-19T05:49:08.787Z,99.456787
2019-01-19T05:52:36.853Z,99.560547
2019-01-19T05:56:04.746Z,99.560547
2019-01-19T05:59:32.725Z,99.517822
2019-01-19T06:03:00.726Z,99.517822
2019-01-19T06:06:28.704Z,99.517822
2019-01-19T06:09:56.662Z,99.414062
2019-01-19T06:13:24.697Z,99.310303
2019-01-19T06:16:52.661Z,99.200439
2019-01-19T06:20:20.653Z,99.310303
2019-01-19T06:23:49.579Z,99.200439
2019-01-19T06:27:17.533Z,99.200439
2019-01-19T06:30:45.466Z,99.200439
2019-01-19T06:34:13.434Z,99.09668
2019-01-19T06:37:41.368Z,98.99292
2019-01-19T06:41:09.363Z,98.88916
2019-01-19T06:44:38.302Z,98.681641
2019-01-19T06:48:06.324Z,98.529053
2019-01-19T06:51:34.251Z,98.529053
2019-01-19T06:55:02.263Z,98.425293
2019-01-19T06:58:31.229Z,98.321533
2019-01-19T07:01:59.202Z,98.321533
2019-01-19T07:05:27.162Z,98.217773
2019-01-19T07:08:55.181Z,98.114014
2019-01-19T07:12:23.131Z,98.114014
2019-01-19T07:15:51.074Z,98.114014
2019-01-19T07:19:19.164Z,97.906494
2019-01-19T07:22:47.109Z,98.010254
2019-01-19T07:26:15.117Z,98.010254
2019-01-19T07:29:43.014Z,98.010254
2019-01-19T07:33:10.983Z,97.906494
2019-01-19T07:36:38.970Z,97.906494
2019-01-19T07:40:06.985Z,97.906494
2019-01-19T07:43:35.016Z,97.906494
2019-01-19T07:47:02.959Z,97.906494
2019-01-19T07:50:30.943Z,97.906494
2019-01-19T07:53:58.898Z,97.802734
2019-01-19T07:57:31.308Z,97.698975
2019-01-19T08:00:57.869Z,97.650146
2019-01-19T08:04:25.814Z,97.485352
2019-01-19T08:07:53.736Z,97.442627
2019-01-19T08:11:21.739Z,97.442627
2019-01-19T08:14:49.705Z,97.546387
2019-01-19T08:18:17.605Z,97.235107
2019-01-19T08:21:45.558Z,97.131348
2019-01-19T08:25:14.752Z,96.923828
2019-01-19T08:28:42.698Z,96.820068
2019-01-19T08:32:10.709Z,96.820068
2019-01-19T08:35:38.671Z,96.606445
2019-01-19T08:39:06.713Z,96.148682
2019-01-19T08:42:34.848Z,96.148682
2019-01-19T08:46:02.748Z,95.727539
2019-01-19T08:49:30.742Z,95.41626
2019-01-19T08:52:58.723Z,95.001221
2019-01-19T08:56:26.752Z,94.958496
2019-01-19T08:59:54.750Z,94.689941
2019-01-19T09:03:23.438Z,94.476318
2019-01-19T09:06:51.400Z,94.580078
2019-01-19T09:10:19.406Z,94.537354
2019-01-19T09:13:47.662Z,94.122314
2019-01-19T09:17:15.573Z,93.499756
2019-01-19T09:20:44.525Z,93.811035
2019-01-19T09:24:12.565Z,93.182373
2019-01-19T09:27:41.714Z,92.974854
2019-01-19T09:31:10.814Z,92.456055
2019-01-19T09:34:38.864Z,92.205811
2019-01-19T09:38:07.263Z,92.41333
2019-01-19T09:41:35.344Z,91.894531
2019-01-19T09:45:03.232Z,91.998291
2019-01-19T09:48:31.134Z,91.784668
2019-01-19T09:51:59.014Z,91.680908
2019-01-19T09:55:26.911Z,91.162109
2019-01-19T09:58:54.810Z,90.95459
2019-01-19T10:02:22.700Z,91.265869
2019-01-19T10:05:50.611Z,91.577148
2019-01-19T10:09:18.513Z,91.223145
2019-01-19T10:12:46.420Z,90.704346
2019-01-19T10:16:14.365Z,90.289307
2019-01-19T10:19:42.295Z,90.185547
2019-01-19T10:23:10.226Z,90.142822
2019-01-19T10:26:38.181Z,90.411377
2019-01-19T10:30:06.224Z,88.916016
2019-01-19T10:33:34.148Z,88.293457
2019-01-19T10:37:02.104Z,88.500977
2019-01-19T10:40:30.107Z,87.109375
2019-01-19T10:43:59.547Z,86.798096
2019-01-19T10:47:27.313Z,87.316895
2019-01-19T10:50:55.318Z,86.236572
2019-01-19T10:54:23.632Z,84.741211
2019-01-19T10:57:51.682Z,83.251953
2019-01-19T11:01:19.656Z,84.222412
2019-01-19T11:04:47.679Z,85.510254
2019-01-19T11:08:15.760Z,85.546875
2019-01-19T11:11:43.727Z,86.627197
2019-01-19T11:15:11.859Z,86.730957
2019-01-19T11:18:40.790Z,86.834717
2019-01-19T11:22:08.706Z,86.730957
2019-01-19T11:25:36.591Z,86.773682
2019-01-19T11:29:04.495Z,86.981201
2019-01-19T11:32:32.434Z,87.70752
2019-01-19T11:36:01.332Z,87.042236
2019-01-19T11:39:29.223Z,86.590576
2019-01-19T11:42:57.151Z,84.326172
2019-01-19T11:46:25.066Z,83.044434
2019-01-19T11:49:52.978Z,81.658936
2019-01-19T11:53:20.916Z,81.970215
2019-01-19T11:56:48.850Z,81.243896
2019-01-19T12:00:16.754Z,81.939697
2019-01-19T12:03:44.654Z,84.051514
2019-01-19T12:07:12.558Z,83.886719
2019-01-19T12:10:41.468Z,85.27832
2019-01-19T12:14:09.398Z,85.9375
2019-01-19T12:17:37.364Z,86.291504
2019-01-19T12:21:05.308Z,87.646484
2019-01-19T12:24:33.225Z,87.432861
2019-01-19T12:28:01.130Z,88.269043
2019-01-19T12:31:29.073Z,87.750244
2019-01-19T12:34:56.975Z,87.164307
2019-01-19T12:38:27.209Z,87.994385
2019-01-19T12:41:54.835Z,88.098145
2019-01-19T12:45:23.706Z,87.994385
2019-01-19T12:48:51.737Z,88.098145
2019-01-19T12:52:19.659Z,88.201904
2019-01-19T12:55:48.566Z,89.245605
2019-01-19T12:59:16.533Z,88.726807
2019-01-19T13:02:44.459Z,88.763428
2019-01-19T13:06:12.365Z,89.453125
2019-01-19T13:09:40.307Z,89.28833
2019-01-19T13:13:08.259Z,89.18457
2019-01-19T13:16:36.138Z,89.39209
2019-01-19T13:20:04.999Z,89.013672
2019-01-19T13:23:33.882Z,90.368652
2019-01-19T13:27:03.754Z,89.746094
2019-01-19T13:30:31.650Z,89.471436
2019-01-19T13:33:59.522Z,90.411377
2019-01-19T13:37:27.417Z,90.203857
2019-01-19T13:40:56.308Z,89.996338
2019-01-19T13:44:24.184Z,90.618896
2019-01-19T13:47:52.183Z,90.203857
2019-01-19T13:51:20.073Z,91.247559
2019-01-19T13:54:47.949Z,91.07666
2019-01-19T13:58:16.552Z,90.869141
2019-01-19T14:01:47.061Z,91.394043
2019-01-19T14:05:14.981Z,91.497803
2019-01-19T14:08:49.174Z,91.394043
2019-01-19T14:12:14.056Z,91.809082
2019-01-19T14:15:41.979Z,91.705322
2019-01-19T14:19:10.974Z,92.224121
2019-01-19T14:22:38.850Z,92.224121
2019-01-19T14:26:06.740Z,92.163086
2019-01-19T14:29:34.638Z,92.266846
2019-01-19T14:33:02.538Z,92.895508
2019-01-19T14:36:30.423Z,92.163086
2019-01-19T14:39:58.325Z,92.51709
2019-01-19T14:43:26.236Z,92.938232
2019-01-19T14:46:54.117Z,92.730713
2019-01-19T14:50:22.019Z,92.30957
2019-01-19T14:53:49.909Z,92.30957
2019-01-19T14:57:18.782Z,92.30957
2019-01-19T15:00:46.691Z,92.626953
2019-01-19T15:04:14.826Z,92.730713
2019-01-19T15:07:42.962Z,92.938232
2019-01-19T15:11:10.934Z,93.249512
2019-01-19T15:14:38.856Z,93.145752
2019-01-19T15:18:06.812Z,93.670654
2019-01-19T15:21:35.775Z,93.566895
2019-01-19T15:25:03.783Z,93.249512
2019-01-19T15:28:31.698Z,93.774414
2019-01-19T15:31:59.631Z,93.878174
2019-01-19T15:35:27.569Z,93.774414
2019-01-19T15:38:55.503Z,93.774414
2019-01-19T15:42:23.492Z,94.189453
2019-01-19T15:45:51.408Z,94.439697
2019-01-19T15:49:19.435Z,94.75708
2019-01-19T15:52:47.410Z,95.068359
2019-01-19T15:56:16.462Z,95.068359
2019-01-19T15:59:44.515Z,95.172119
2019-01-19T16:03:12.492Z,95.068359
2019-01-19T16:06:40.478Z,94.86084
2019-01-19T16:10:08.405Z,94.9646
2019-01-19T16:13:36.347Z,95.379639
2019-01-19T16:17:05.286Z,95.172119
2019-01-19T16:20:34.194Z,95.068359
2019-01-19T16:24:02.238Z,95.275879
2019-01-19T16:27:31.163Z,95.275879
2019-01-19T16:30:59.094Z,95.068359
2019-01-19T16:34:27.065Z,95.068359
2019-01-19T16:37:55.026Z,95.111084
2019-01-19T16:41:22.959Z,94.86084
2019-01-19T16:44:51.895Z,94.549561
2019-01-19T16:48:19.829Z,94.335938
2019-01-19T16:51:48.769Z,94.65332
2019-01-19T16:55:18.860Z,94.65332
2019-01-19T16:58:46.623Z,94.75708
2019-01-19T17:02:14.527Z,94.75708
2019-01-19T17:05:42.469Z,95.172119
2019-01-19T17:09:10.414Z,95.379639
2019-01-19T17:12:38.365Z,95.489502
2019-01-19T17:16:06.314Z,95.697021
2019-01-19T17:19:34.305Z,96.21582
2019-01-19T17:23:02.252Z,96.21582
2019-01-19T17:26:30.184Z,96.112061
2019-01-19T17:29:58.165Z,96.21582
2019-01-19T17:33:27.247Z,96.21582
2019-01-19T17:36:55.187Z,95.635986
2019-01-19T17:40:23.187Z,95.214844
2019-01-19T17:43:51.135Z,95.214844
2019-01-19T17:47:19.050Z,95.007324
2019-01-19T17:50:46.937Z,94.696045
2019-01-19T17:54:14.812Z,94.799805
2019-01-19T17:57:42.718Z,95.324707
2019-01-19T18:01:10.620Z,95.635986
2019-01-19T18:04:38.481Z,95.324707
2019-01-19T18:08:06.418Z,95.678711
2019-01-19T18:11:34.310Z,95.471191
2019-01-19T18:15:02.215Z,95.678711
2019-01-19T18:18:31.158Z,95.88623
2019-01-19T18:21:59.015Z,96.307373
2019-01-19T18:25:26.905Z,96.368408
2019-01-19T18:28:55.775Z,96.368408
2019-01-19T18:32:23.667Z,96.051025
2019-01-19T18:35:51.561Z,95.947266
2019-01-19T18:39:19.457Z,95.98999
2019-01-19T18:42:47.371Z,96.411133
2019-01-19T18:46:15.220Z,96.514893
2019-01-19T18:49:43.101Z,96.826172
2019-01-19T18:53:11.009Z,97.247314
2019-01-19T18:56:38.866Z,97.351074
2019-01-19T19:00:06.760Z,97.247314
2019-01-19T19:03:34.638Z,97.143555
2019-01-19T19:07:02.513Z,97.247314
2019-01-19T19:10:31.396Z,97.454834
2019-01-19T19:13:59.284Z,97.454834
2019-01-19T19:17:28.158Z,97.351074
2019-01-19T19:20:56.050Z,97.039795
2019-01-19T19:24:24.302Z,97.351074
2019-01-19T19:27:52.174Z,97.503662
2019-01-19T19:31:20.058Z,97.875977
2019-01-19T19:34:47.949Z,98.083496
2019-01-19T19:38:15.827Z,97.979736
2019-01-19T19:41:43.745Z,98.126221
2019-01-19T19:45:13.605Z,98.291016
2019-01-19T19:48:41.483Z,98.504639
2019-01-19T19:52:09.383Z,98.504639
2019-01-19T19:55:38.262Z,98.608398
2019-01-19T19:59:06.139Z,98.504639
2019-01-19T20:02:34.054Z,98.443604
2019-01-19T20:06:01.961Z,98.339844
2019-01-19T20:09:29.847Z,97.918701
2019-01-19T20:12:57.742Z,98.126221
2019-01-19T20:16:25.627Z,98.443604
2019-01-19T20:19:53.498Z,98.236084
2019-01-19T20:23:21.396Z,98.443604
2019-01-19T20:26:49.317Z,98.236084
2019-01-19T20:30:17.205Z,98.443604
2019-01-19T20:33:45.082Z,98.651123
2019-01-19T20:37:12.969Z,98.651123
2019-01-19T20:40:40.833Z,98.651123
2019-01-19T20:44:08.726Z,98.547363
2019-01-19T20:47:36.668Z,98.754883
2019-01-19T20:51:04.552Z,98.858643
2019-01-19T20:54:32.451Z,98.968506
2019-01-19T20:58:00.351Z,99.072266
2019-01-19T21:01:28.223Z,98.968506
2019-01-19T21:04:56.124Z,99.072266
2019-01-19T21:08:24.113Z,99.176025
2019-01-19T21:11:51.990Z,99.279785
2019-01-19T21:15:20.882Z,99.383545
2019-01-19T21:18:48.775Z,99.487305
2019-01-19T21:22:16.646Z,99.487305
2019-01-19T21:25:44.537Z,99.487305
2019-01-19T21:29:12.433Z,99.176025
2019-01-19T21:32:40.315Z,99.11499
2019-01-19T21:36:08.213Z,99.01123
2019-01-19T21:39:37.541Z,99.21875
2019-01-19T21:43:05.422Z,99.32251
2019-01-19T21:46:33.330Z,99.536133
2019-01-19T21:50:01.319Z,99.700928
2019-01-19T21:53:29.205Z,99.804688
2019-01-19T21:56:57.096Z,99.804688
2019-01-19T22:00:25.074Z,99.847412
2019-01-19T22:04:08.523Z,99.951172
2019-01-19T22:07:37.001Z,99.847412
2019-01-19T22:11:04.888Z,99.993896
2019-01-19T22:14:32.766Z,99.993896
2019-01-19T22:18:00.661Z,99.993896
2019-01-19T22:21:28.570Z,99.993896
2019-01-19T22:24:56.445Z,99.993896
2019-01-19T22:28:25.379Z,99.993896
2019-01-19T22:31:53.250Z,99.993896
2019-01-19T22:35:21.137Z,99.993896
2019-01-19T22:38:49.030Z,99.993896
2019-01-19T22:42:16.924Z,99.993896
2019-01-19T22:45:44.809Z,99.993896
2019-01-19T22:49:12.713Z,99.993896
2019-01-19T22:52:40.680Z,99.993896
2019-01-19T22:56:13.843Z,99.993896
2019-01-19T22:59:57.871Z,99.993896
